Time;durP1;ratioP1;P1;durP2;ratioP2;P2;SDS_P1;SDS_P2;PMS_P1;PMS_P2;Temp;Humidity;BMP_temperature;BMP_pressure;BME280_temperature;BME280_humidity;BME280_pressure;Samples;Min_cycle;Max_cycle;Signal;HPM_P1;HPM_P2
2021/07/02 00:01:39;;;;;;;19.58;9.55;;;;;;;-144.13;100.00;64086.75;5028722;28;20022;-53
2021/07/02 00:04:06;;;;;;;22.02;11.32;;;;;;;-144.13;100.00;64086.75;5016672;28;20033;-57
2021/07/02 00:06:31;;;;;;;18.35;10.10;;;;;;;-144.13;100.00;64086.75;5028234;28;20022;-58
2021/07/02 00:08:57;;;;;;;18.40;10.70;;;;;;;-144.13;100.00;64086.75;5032560;28;20506;-54
2021/07/02 00:11:22;;;;;;;18.95;10.57;;;;;;;-144.13;100.00;64086.75;5028866;28;20020;-59
2021/07/02 00:13:48;;;;;;;17.33;8.98;;;;;;;-144.13;100.00;64086.75;5032960;28;20685;-54
2021/07/02 00:16:13;;;;;;;17.20;8.93;;;;;;;-144.13;100.00;64086.75;5022858;28;20025;-56
2021/07/02 00:18:39;;;;;;;16.88;9.23;;;;;;;-144.13;100.00;64086.75;5029766;28;20226;-58
2021/07/02 00:21:05;;;;;;;19.63;9.98;;;;;;;-144.13;100.00;64086.75;5026119;28;20029;-55
2021/07/02 00:23:30;;;;;;;21.27;9.38;;;;;;;-144.13;100.00;64086.75;5036739;28;20028;-53
2021/07/02 00:25:56;;;;;;;19.65;9.60;;;;;;;-144.13;100.00;64086.75;5032170;28;20467;-54
2021/07/02 00:28:22;;;;;;;16.50;9.40;;;;;;;-144.13;100.00;64086.75;5034058;28;20074;-57
2021/07/02 00:30:48;;;;;;;18.90;9.75;;;;;;;-144.13;100.00;64086.75;5033482;28;20029;-57
2021/07/02 00:33:14;;;;;;;19.02;10.93;;;;;;;-144.13;100.00;64086.75;5035415;28;20020;-56
2021/07/02 00:35:41;;;;;;;21.23;10.48;;;;;;;-144.13;100.00;64086.75;5034628;28;20252;-57
2021/07/02 00:38:07;;;;;;;18.33;10.07;;;;;;;-144.13;100.00;64086.75;5033397;28;20036;-56
2021/07/02 00:40:32;;;;;;;19.48;9.52;;;;;;;-144.13;100.00;64086.75;5034399;28;20029;-54
2021/07/02 00:42:58;;;;;;;18.70;9.43;;;;;;;-144.13;100.00;64086.75;5030128;28;20483;-57
2021/07/02 00:45:23;;;;;;;18.90;8.90;;;;;;;-144.13;100.00;64086.75;5031645;28;20089;-53
2021/07/02 00:47:49;;;;;;;21.67;10.20;;;;;;;-144.13;100.00;64086.75;5033173;28;20054;-58
2021/07/02 00:50:14;;;;;;;17.80;9.32;;;;;;;-144.13;100.00;64086.75;5017953;28;20387;-59
2021/07/02 00:52:41;;;;;;;16.40;9.35;;;;;;;-144.13;100.00;64086.75;5037193;28;20025;-56
2021/07/02 00:55:07;;;;;;;18.70;10.27;;;;;;;-144.13;100.00;64086.75;5031177;28;20040;-54
2021/07/02 00:57:35;;;;;;;19.80;9.60;;;;;;;-144.13;100.00;64086.75;5034343;28;20037;-60
2021/07/02 01:00:01;;;;;;;21.27;10.60;;;;;;;-144.13;100.00;64086.75;5034397;28;21031;-56
2021/07/02 01:02:26;;;;;;;18.65;10.10;;;;;;;-144.13;100.00;64086.75;5029853;28;20030;-56
2021/07/02 01:04:52;;;;;;;19.65;9.88;;;;;;;-144.13;100.00;64086.75;5032998;28;20053;-54
2021/07/02 01:07:18;;;;;;;17.75;10.60;;;;;;;-144.13;100.00;64086.75;5033182;28;20032;-56
2021/07/02 01:09:45;;;;;;;18.33;9.85;;;;;;;-144.13;100.00;64086.75;5034232;28;20031;-55
2021/07/02 01:12:13;;;;;;;21.00;10.38;;;;;;;-144.13;100.00;64086.75;5029402;28;20043;-56
2021/07/02 01:14:39;;;;;;;19.85;10.13;;;;;;;-144.13;100.00;64086.75;5034785;28;20045;-57
2021/07/02 01:17:05;;;;;;;16.75;9.35;;;;;;;-144.13;100.00;64086.75;5031033;28;20110;-57
2021/07/02 01:19:31;;;;;;;21.30;10.98;;;;;;;-144.13;100.00;64086.75;5033554;28;20507;-54
2021/07/02 01:21:56;;;;;;;22.63;11.10;;;;;;;-144.13;100.00;64086.75;5030761;28;20453;-54
2021/07/02 01:24:23;;;;;;;26.38;11.05;;;;;;;-144.13;100.00;64086.75;5032552;28;20036;-53
2021/07/02 01:26:50;;;;;;;26.48;11.32;;;;;;;-144.13;100.00;64086.75;5030790;28;20025;-53
2021/07/02 01:29:16;;;;;;;23.35;10.93;;;;;;;-144.13;100.00;64086.75;5030887;28;20039;-55
2021/07/02 01:31:42;;;;;;;24.48;11.48;;;;;;;-144.13;100.00;64086.75;5035683;28;20391;-55
2021/07/02 01:34:07;;;;;;;26.88;11.20;;;;;;;-144.13;100.00;64086.75;5036207;28;20071;-53
2021/07/02 01:36:33;;;;;;;26.65;11.68;;;;;;;-144.13;100.00;64086.75;5037571;28;20037;-58
2021/07/02 01:38:59;;;;;;;25.48;11.90;;;;;;;-144.13;100.00;64086.75;5036575;28;20312;-54
2021/07/02 01:41:25;;;;;;;28.27;11.63;;;;;;;-144.13;100.00;64086.75;5037200;28;20437;-56
2021/07/02 01:43:51;;;;;;;25.33;11.45;;;;;;;-144.13;100.00;64086.75;5034162;28;20509;-55
2021/07/02 01:46:16;;;;;;;29.23;11.40;;;;;;;-144.13;100.00;64086.75;5038613;28;20037;-56
2021/07/02 01:48:44;;;;;;;27.08;11.05;;;;;;;-144.13;100.00;64086.75;5037406;28;20024;-53
2021/07/02 01:51:09;;;;;;;26.23;12.25;;;;;;;-144.13;100.00;64086.75;5038715;28;20064;-53
2021/07/02 01:53:36;;;;;;;27.48;11.95;;;;;;;-144.13;100.00;64086.75;5036393;28;20120;-55
2021/07/02 01:56:01;;;;;;;28.40;12.80;;;;;;;-144.13;100.00;64086.75;5036283;28;20033;-55
2021/07/02 01:58:27;;;;;;;29.13;11.65;;;;;;;-144.13;100.00;64086.75;5036800;28;20503;-56
2021/07/02 02:00:52;;;;;;;27.90;12.27;;;;;;;-144.13;100.00;64086.75;5037360;28;20032;-58
2021/07/02 02:03:18;;;;;;;27.42;12.30;;;;;;;-144.13;100.00;64086.75;5035622;28;20029;-55
2021/07/02 02:05:43;;;;;;;24.23;12.52;;;;;;;-144.13;100.00;64086.75;5036175;28;20043;-57
2021/07/02 02:08:09;;;;;;;29.52;12.63;;;;;;;-144.13;100.00;64086.75;5035214;28;20043;-57
2021/07/02 02:10:35;;;;;;;29.00;12.88;;;;;;;-144.13;100.00;64086.75;5038089;28;20387;-56
2021/07/02 02:13:00;;;;;;;26.70;12.38;;;;;;;-144.13;100.00;64086.75;5034254;28;20462;-53
2021/07/02 02:15:26;;;;;;;29.08;12.05;;;;;;;-144.13;100.00;64086.75;5030876;28;20484;-57
2021/07/02 02:17:51;;;;;;;28.23;12.55;;;;;;;-144.13;100.00;64086.75;5035731;28;20066;-55
2021/07/02 02:20:17;;;;;;;31.30;12.20;;;;;;;-144.13;100.00;64086.75;5032623;28;20036;-55
2021/07/02 02:22:43;;;;;;;31.83;12.88;;;;;;;-144.13;100.00;64086.75;5030576;28;20059;-55
2021/07/02 02:25:09;;;;;;;27.13;12.13;;;;;;;-144.13;100.00;64086.75;5032784;28;20067;-57
2021/07/02 02:27:37;;;;;;;25.00;11.82;;;;;;;-144.13;100.00;64086.75;5032657;28;20045;-56
2021/07/02 02:30:05;;;;;;;31.10;12.75;;;;;;;-144.13;100.00;64086.75;5015560;28;20031;-53
2021/07/02 02:32:31;;;;;;;32.30;12.93;;;;;;;-144.13;100.00;64086.75;5032625;28;20033;-55
2021/07/02 02:34:56;;;;;;;37.83;14.07;;;;;;;-144.13;100.00;64086.75;5031209;28;20612;-56
2021/07/02 02:37:22;;;;;;;33.38;12.73;;;;;;;-144.13;100.00;64086.75;5030564;28;20033;-58
2021/07/02 02:39:47;;;;;;;39.33;14.45;;;;;;;-144.13;100.00;64086.75;5031643;28;20026;-56
2021/07/02 02:42:13;;;;;;;39.92;14.15;;;;;;;-144.13;100.00;64086.75;5031486;28;20031;-55
2021/07/02 02:44:38;;;;;;;37.85;13.30;;;;;;;-144.13;100.00;64086.75;5032110;28;20025;-56
2021/07/02 02:47:04;;;;;;;32.33;13.20;;;;;;;-144.13;100.00;64086.75;5031299;28;20414;-55
2021/07/02 02:49:29;;;;;;;35.60;13.38;;;;;;;-144.13;100.00;64086.75;5030866;28;20469;-57
2021/07/02 02:51:55;;;;;;;32.70;13.45;;;;;;;-144.13;100.00;64086.75;5031576;28;20146;-56
2021/07/02 02:54:20;;;;;;;37.47;13.95;;;;;;;-144.13;100.00;64086.75;5034320;28;20028;-57
2021/07/02 02:57:04;;;;;;;36.35;14.32;;;;;;;-144.13;100.00;64086.75;5033035;28;20085;-59
2021/07/02 02:59:30;;;;;;;27.33;12.07;;;;;;;-144.13;100.00;64086.75;5033014;28;20029;-55
2021/07/02 03:01:57;;;;;;;35.58;13.23;;;;;;;-144.13;100.00;64086.75;5031823;28;20024;-55
2021/07/02 03:04:23;;;;;;;30.88;13.50;;;;;;;-144.13;100.00;64086.75;5031853;28;20530;-53
2021/07/02 03:06:49;;;;;;;24.90;12.10;;;;;;;-144.13;100.00;64086.75;5031739;28;20075;-57
2021/07/02 03:09:15;;;;;;;31.88;13.05;;;;;;;-144.13;100.00;64086.75;5032729;28;20044;-56
2021/07/02 03:11:42;;;;;;;32.90;14.10;;;;;;;-144.13;100.00;64086.75;5031171;28;20037;-56
2021/07/02 03:14:08;;;;;;;25.25;12.95;;;;;;;-144.13;100.00;64086.75;5033721;28;20037;-58
2021/07/02 03:16:34;;;;;;;29.85;13.77;;;;;;;-144.13;100.00;64086.75;5031918;28;20047;-57
2021/07/02 03:18:59;;;;;;;30.33;14.60;;;;;;;-144.13;100.00;64086.75;5032743;28;20567;-53
2021/07/02 03:21:24;;;;;;;32.00;13.98;;;;;;;-144.13;100.00;64086.75;5032216;28;20021;-58
2021/07/02 03:23:50;;;;;;;31.15;13.50;;;;;;;-144.13;100.00;64086.75;5031099;28;20029;-54
2021/07/02 03:26:17;;;;;;;32.45;14.15;;;;;;;-144.13;100.00;64086.75;5030559;28;20020;-55
2021/07/02 03:28:43;;;;;;;30.77;13.70;;;;;;;-144.13;100.00;64086.75;5030887;28;20029;-57
2021/07/02 03:31:09;;;;;;;29.88;13.43;;;;;;;-144.13;100.00;64086.75;5032957;28;20386;-55
2021/07/02 03:33:34;;;;;;;29.00;14.30;;;;;;;-144.13;100.00;64086.75;5031846;28;20033;-53
2021/07/02 03:36:00;;;;;;;35.08;14.68;;;;;;;-144.13;100.00;64086.75;5030336;28;20560;-55
2021/07/02 03:38:26;;;;;;;29.45;14.65;;;;;;;-144.13;100.00;64086.75;5031861;28;20033;-55
2021/07/02 03:40:51;;;;;;;30.35;14.23;;;;;;;-144.13;100.00;64086.75;5030657;28;20051;-56
2021/07/02 03:43:17;;;;;;;32.38;14.52;;;;;;;-144.13;100.00;64086.75;5032794;28;20021;-57
2021/07/02 03:45:43;;;;;;;30.92;14.07;;;;;;;-144.13;100.00;64086.75;5024625;28;20079;-56
2021/07/02 03:48:09;;;;;;;27.50;13.88;;;;;;;-144.13;100.00;64086.75;5028648;28;20250;-56
2021/07/02 03:50:34;;;;;;;26.88;13.05;;;;;;;-144.13;100.00;64086.75;5028220;28;20459;-57
2021/07/02 03:53:00;;;;;;;29.63;13.63;;;;;;;-144.13;100.00;64086.75;5038203;28;20033;-53
2021/07/02 03:55:25;;;;;;;31.70;14.15;;;;;;;-144.13;100.00;64086.75;5037048;28;20450;-56
2021/07/02 03:57:50;;;;;;;31.55;14.10;;;;;;;-144.13;100.00;64086.75;5038863;28;20032;-57
2021/07/02 04:00:16;;;;;;;29.08;14.48;;;;;;;-144.13;100.00;64086.75;5036909;28;20036;-55
2021/07/02 04:02:42;;;;;;;28.95;13.55;;;;;;;-144.13;100.00;64086.75;5035262;28;20037;-59
2021/07/02 04:05:08;;;;;;;29.15;14.82;;;;;;;-144.13;100.00;64086.75;5032359;28;20530;-55
2021/07/02 04:07:34;;;;;;;28.75;15.00;;;;;;;-144.13;100.00;64086.75;5033903;28;20029;-53
2021/07/02 04:09:59;;;;;;;27.40;15.13;;;;;;;-144.13;100.00;64086.75;5036288;28;21577;-57
2021/07/02 04:12:25;;;;;;;30.45;14.45;;;;;;;-144.13;100.00;64086.75;5019768;28;20200;-56
2021/07/02 04:14:50;;;;;;;27.10;13.25;;;;;;;-144.13;100.00;64086.75;5036987;28;20676;-56
2021/07/02 04:17:16;;;;;;;32.67;16.55;;;;;;;-144.13;100.00;64086.75;5033495;28;20143;-57
2021/07/02 04:19:41;;;;;;;30.00;16.25;;;;;;;-144.13;100.00;64086.75;5034059;28;20048;-57
2021/07/02 04:22:08;;;;;;;44.50;21.30;;;;;;;-144.13;100.00;64086.75;5035363;28;20155;-57
2021/07/02 04:24:33;;;;;;;38.80;19.17;;;;;;;-144.13;100.00;64086.75;5035013;28;20033;-55
2021/07/02 04:26:59;;;;;;;46.15;23.23;;;;;;;-144.13;100.00;64086.75;5035060;28;20040;-53
2021/07/02 04:29:26;;;;;;;42.75;21.38;;;;;;;-144.13;100.00;64086.75;5030856;28;20017;-57
2021/07/02 04:31:52;;;;;;;35.42;19.65;;;;;;;-144.13;100.00;64086.75;5034364;28;20498;-56
2021/07/02 04:34:18;;;;;;;43.13;21.50;;;;;;;-144.13;100.00;64086.75;5027303;28;20039;-55
2021/07/02 04:36:44;;;;;;;35.13;18.17;;;;;;;-144.13;100.00;64086.75;5034281;28;20457;-58
2021/07/02 04:39:10;;;;;;;31.77;17.05;;;;;;;-144.13;100.00;64086.75;5028601;28;20030;-58
2021/07/02 04:41:36;;;;;;;35.28;17.95;;;;;;;-144.13;100.00;64086.75;5024794;28;20068;-56
2021/07/02 04:44:03;;;;;;;33.60;17.10;;;;;;;-144.13;100.00;64086.75;5030029;28;20416;-56
2021/07/02 04:46:28;;;;;;;34.38;18.48;;;;;;;-144.13;100.00;64086.75;5028427;28;21628;-54
2021/07/02 04:48:54;;;;;;;31.77;17.13;;;;;;;-144.13;100.00;64086.75;5028379;28;20095;-57
2021/07/02 04:51:19;;;;;;;30.65;18.15;;;;;;;-144.13;100.00;64086.75;5034366;28;20034;-56
2021/07/02 04:53:45;;;;;;;29.55;18.08;;;;;;;-144.13;100.00;64086.75;5032407;28;20486;-58
2021/07/02 04:56:12;;;;;;;26.70;16.90;;;;;;;-144.13;100.00;64086.75;5035856;28;20032;-55
2021/07/02 04:58:39;;;;;;;25.95;15.65;;;;;;;-144.13;100.00;64086.75;5030653;28;20434;-59
2021/07/02 05:01:05;;;;;;;25.48;15.30;;;;;;;-144.13;100.00;64086.75;5030431;28;20074;-55
2021/07/02 05:03:30;;;;;;;24.23;13.43;;;;;;;-144.13;100.00;64086.75;5030791;28;20146;-57
2021/07/02 05:05:56;;;;;;;22.73;12.75;;;;;;;-144.13;100.00;64086.75;5030299;28;20071;-53
2021/07/02 05:08:24;;;;;;;25.65;13.73;;;;;;;-144.13;100.00;64086.75;5029711;28;20115;-57
2021/07/02 05:10:49;;;;;;;24.48;13.50;;;;;;;-144.13;100.00;64086.75;5033144;28;20033;-58
2021/07/02 05:13:15;;;;;;;20.58;13.85;;;;;;;-144.13;100.00;64086.75;5031173;28;20163;-53
2021/07/02 05:15:40;;;;;;;21.00;11.93;;;;;;;-144.13;100.00;64086.75;5028842;28;20021;-58
2021/07/02 05:18:06;;;;;;;22.48;12.25;;;;;;;-144.13;100.00;64086.75;5027239;28;20487;-57
2021/07/02 05:20:31;;;;;;;19.98;10.90;;;;;;;-144.13;100.00;64086.75;5027580;28;20029;-57
2021/07/02 05:22:57;;;;;;;16.08;12.02;;;;;;;-144.13;100.00;64086.75;5028779;28;20025;-53
2021/07/02 05:25:23;;;;;;;15.45;10.15;;;;;;;-144.13;100.00;64086.75;5026224;28;20033;-58
2021/07/02 05:27:48;;;;;;;18.70;11.32;;;;;;;-144.13;100.00;64086.75;5023142;28;20029;-57
2021/07/02 05:30:14;;;;;;;18.48;10.80;;;;;;;-144.13;100.00;64086.75;5024927;28;20391;-56
2021/07/02 05:32:40;;;;;;;21.67;12.05;;;;;;;-144.13;100.00;64086.75;5005521;28;20075;-57
2021/07/02 05:35:08;;;;;;;16.40;10.90;;;;;;;-144.13;100.00;64086.75;5026637;28;20260;-54
2021/07/02 05:37:34;;;;;;;17.17;10.43;;;;;;;-144.13;100.00;64086.75;5030726;28;20033;-58
2021/07/02 05:40:00;;;;;;;12.65;9.40;;;;;;;-144.13;100.00;64086.75;5024476;28;20033;-55
2021/07/02 05:42:25;;;;;;;17.35;10.40;;;;;;;-144.13;100.00;64086.75;5025533;28;20087;-57
2021/07/02 05:44:51;;;;;;;18.63;10.98;;;;;;;-144.13;100.00;64086.75;5028334;28;20148;-56
2021/07/02 05:47:17;;;;;;;16.75;11.57;;;;;;;-144.13;100.00;64086.75;5026895;28;20041;-56
2021/07/02 05:49:42;;;;;;;15.75;10.07;;;;;;;-144.13;100.00;64086.75;5028621;28;20071;-58
2021/07/02 05:52:08;;;;;;;15.68;9.93;;;;;;;-144.13;100.00;64086.75;5027828;28;20029;-56
2021/07/02 05:54:33;;;;;;;13.25;9.13;;;;;;;-144.13;100.00;64086.75;5029098;28;20029;-55
2021/07/02 05:56:59;;;;;;;14.90;9.02;;;;;;;-144.13;100.00;64086.75;5027115;28;20041;-54
2021/07/02 05:59:24;;;;;;;15.52;9.55;;;;;;;-144.13;100.00;64086.75;5029692;28;20183;-56
2021/07/02 06:01:50;;;;;;;12.95;8.70;;;;;;;-144.13;100.00;64086.75;5027873;28;20128;-58
2021/07/02 06:04:15;;;;;;;13.85;8.95;;;;;;;-144.13;100.00;64086.75;5028889;28;20104;-56
2021/07/02 06:06:41;;;;;;;11.93;8.43;;;;;;;-144.13;100.00;64086.75;5026193;28;20033;-58
2021/07/02 06:09:07;;;;;;;13.43;9.10;;;;;;;-144.13;100.00;64086.75;5030453;28;20021;-54
2021/07/02 06:11:32;;;;;;;10.88;7.60;;;;;;;-144.13;100.00;64086.75;5028134;28;20128;-57
2021/07/02 06:13:58;;;;;;;12.10;7.53;;;;;;;-144.13;100.00;64086.75;5030657;28;20025;-54
2021/07/02 06:16:24;;;;;;;12.27;7.82;;;;;;;-144.13;100.00;64086.75;5028917;28;20017;-56
2021/07/02 06:18:50;;;;;;;13.82;7.53;;;;;;;-144.13;100.00;64086.75;5031790;28;20033;-58
2021/07/02 06:21:15;;;;;;;10.15;6.82;;;;;;;-144.13;100.00;64086.75;5033628;28;20032;-60
2021/07/02 06:23:41;;;;;;;9.75;6.97;;;;;;;-144.13;100.00;64086.75;5031501;28;20028;-58
2021/07/02 06:26:08;;;;;;;7.72;5.72;;;;;;;-144.13;100.00;64086.75;5029105;28;20091;-60
2021/07/02 06:28:34;;;;;;;10.38;6.88;;;;;;;-144.13;100.00;64086.75;5029326;28;20412;-58
2021/07/02 06:30:59;;;;;;;11.25;6.80;;;;;;;-144.13;100.00;64086.75;5030463;28;20021;-57
2021/07/02 06:33:25;;;;;;;11.80;6.63;;;;;;;-144.13;100.00;64086.75;5031885;28;20225;-56
2021/07/02 06:35:51;;;;;;;11.23;6.63;;;;;;;-144.13;100.00;64086.75;5031470;28;20039;-56
2021/07/02 06:38:19;;;;;;;8.30;6.45;;;;;;;-144.13;100.00;64086.75;5035535;28;20026;-58
2021/07/02 06:40:44;;;;;;;12.68;6.53;;;;;;;-144.13;100.00;64086.75;5034603;28;20033;-57
2021/07/02 06:43:10;;;;;;;12.07;6.60;;;;;;;-144.13;100.00;64086.75;5032867;28;20051;-54
2021/07/02 06:45:35;;;;;;;12.75;6.18;;;;;;;-144.13;100.00;64086.75;5015993;28;20030;-57
2021/07/02 06:48:04;;;;;;;10.82;6.97;;;;;;;-144.13;100.00;64086.75;5033382;28;20036;-53
2021/07/02 06:50:35;;;;;;;11.32;6.28;;;;;;;-144.13;100.00;64086.75;5018000;28;20024;-54
2021/07/02 06:53:03;;;;;;;11.18;6.55;;;;;;;-144.13;100.00;64086.75;5030732;28;20033;-55
2021/07/02 06:55:29;;;;;;;10.15;6.22;;;;;;;-144.13;100.00;64086.75;5031936;28;20025;-54
2021/07/02 06:57:55;;;;;;;8.57;5.38;;;;;;;-144.13;100.00;64086.75;5030403;28;20037;-56
2021/07/02 07:00:22;;;;;;;7.45;5.78;;;;;;;-144.13;100.00;64086.75;5029120;28;20438;-56
2021/07/02 07:02:48;;;;;;;12.73;6.20;;;;;;;-144.13;100.00;64086.75;5031959;28;20025;-54
2021/07/02 07:05:14;;;;;;;9.43;5.22;;;;;;;-144.13;100.00;64086.75;5030885;28;20058;-57
2021/07/02 07:07:41;;;;;;;8.23;4.47;;;;;;;-144.13;100.00;64086.75;5035413;28;20041;-58
2021/07/02 07:10:07;;;;;;;7.10;4.30;;;;;;;-144.13;100.00;64086.75;5032130;28;20400;-55
2021/07/02 07:12:33;;;;;;;7.45;4.35;;;;;;;-144.13;100.00;64086.75;5033782;28;20036;-58
2021/07/02 07:14:58;;;;;;;9.77;4.70;;;;;;;-144.13;100.00;64086.75;5016483;28;20040;-55
2021/07/02 07:17:24;;;;;;;6.43;4.28;;;;;;;-144.13;100.00;64086.75;5029269;28;20559;-56
2021/07/02 07:19:50;;;;;;;6.55;3.85;;;;;;;-144.13;100.00;64086.75;5029732;28;20060;-59
2021/07/02 07:22:16;;;;;;;6.00;3.88;;;;;;;-144.13;100.00;64086.75;5036581;28;20033;-58
2021/07/02 07:24:42;;;;;;;6.82;4.22;;;;;;;-144.13;100.00;64086.75;5030060;28;20030;-58
2021/07/02 07:27:08;;;;;;;4.40;3.40;;;;;;;-144.13;100.00;64086.75;5032575;28;20119;-54
2021/07/02 07:29:33;;;;;;;5.25;3.75;;;;;;;-144.13;100.00;64086.75;5029362;28;20033;-56
2021/07/02 07:32:01;;;;;;;8.50;3.80;;;;;;;-144.13;100.00;64086.75;5033578;28;20029;-53
2021/07/02 07:37:08;;;;;;;7.07;4.47;;;;;;;-144.13;100.00;64086.75;5032137;28;20025;-55
2021/07/02 07:39:33;;;;;;;7.15;3.80;;;;;;;-144.13;100.00;64086.75;5032739;28;20038;-57
2021/07/02 07:41:59;;;;;;;7.63;4.15;;;;;;;-144.13;100.00;64086.75;5030715;28;20159;-56
2021/07/02 07:44:24;;;;;;;7.25;3.92;;;;;;;-144.13;100.00;64086.75;5025243;28;20033;-58
2021/07/02 07:46:50;;;;;;;6.55;3.70;;;;;;;-144.13;100.00;64086.75;5034483;28;20072;-57
2021/07/02 07:49:15;;;;;;;3.83;2.95;;;;;;;-144.13;100.00;64086.75;5022543;28;20028;-58
2021/07/02 07:51:55;;;;;;;6.22;3.40;;;;;;;-144.13;100.00;64086.75;5031998;28;20615;-54
2021/07/02 07:54:21;;;;;;;6.10;3.50;;;;;;;-144.13;100.00;64086.75;5036442;28;20056;-55
2021/07/02 07:56:50;;;;;;;4.68;3.20;;;;;;;-144.13;100.00;64086.75;5032617;28;20024;-57
2021/07/02 07:59:28;;;;;;;7.25;4.10;;;;;;;-144.13;100.00;64086.75;5030381;28;20083;-53
2021/07/02 08:01:53;;;;;;;3.85;3.10;;;;;;;-144.13;100.00;64086.75;5031041;28;20361;-57
2021/07/02 08:04:19;;;;;;;8.35;3.53;;;;;;;-144.13;100.00;64086.75;5028544;28;20062;-55
2021/07/02 08:06:46;;;;;;;4.93;3.10;;;;;;;-144.13;100.00;64086.75;5029376;28;20108;-54
2021/07/02 08:09:13;;;;;;;6.40;3.70;;;;;;;-144.13;100.00;64086.75;5028426;28;20110;-54
2021/07/02 08:11:42;;;;;;;6.78;4.07;;;;;;;-144.13;100.00;64086.75;5028109;28;20502;-57
2021/07/02 08:14:09;;;;;;;5.05;4.07;;;;;;;-144.13;100.00;64086.75;5031883;28;20021;-55
2021/07/02 08:16:36;;;;;;;6.57;3.55;;;;;;;-144.13;100.00;64086.75;5032218;28;20037;-58
2021/07/02 08:19:02;;;;;;;7.70;3.47;;;;;;;-144.13;100.00;64086.75;5030067;28;20084;-59
2021/07/02 08:21:28;;;;;;;8.05;3.40;;;;;;;-144.13;100.00;64086.75;5029828;28;20059;-54
2021/07/02 08:23:53;;;;;;;6.20;4.30;;;;;;;-144.13;100.00;64086.75;5030835;28;20100;-57
2021/07/02 08:26:19;;;;;;;7.57;3.85;;;;;;;-144.13;100.00;64086.75;5032066;28;20416;-58
2021/07/02 08:31:31;;;;;;;5.30;3.30;;;;;;;-144.13;100.00;64086.75;5024931;28;20076;-58
2021/07/02 08:33:57;;;;;;;6.47;3.42;;;;;;;-144.13;100.00;64086.75;5027364;28;20036;-58
2021/07/02 08:36:23;;;;;;;5.72;3.88;;;;;;;-144.13;100.00;64086.75;5029687;28;20503;-57
2021/07/02 08:38:48;;;;;;;9.85;4.05;;;;;;;-144.13;100.00;64086.75;5030899;28;20028;-56
2021/07/02 08:41:14;;;;;;;4.93;3.30;;;;;;;-144.13;100.00;64086.75;5023979;28;20029;-58
2021/07/02 08:43:41;;;;;;;5.97;3.80;;;;;;;-144.13;100.00;64086.75;5026803;28;20040;-57
2021/07/02 08:46:12;;;;;;;5.10;3.53;;;;;;;-144.13;100.00;64086.75;5028261;28;20534;-56
2021/07/02 08:48:39;;;;;;;6.13;3.78;;;;;;;-144.13;100.00;64086.75;5023357;28;20067;-57
2021/07/02 08:51:06;;;;;;;7.32;3.40;;;;;;;-144.13;100.00;64086.75;5027258;28;20221;-55
2021/07/02 08:53:32;;;;;;;4.15;3.05;;;;;;;-144.13;100.00;64086.75;5025519;28;20121;-55
2021/07/02 08:56:01;;;;;;;6.13;3.17;;;;;;;-144.13;100.00;64086.75;5028545;28;20277;-57
2021/07/02 08:58:26;;;;;;;5.72;3.55;;;;;;;-144.13;100.00;64086.75;5026436;28;20025;-55
2021/07/02 09:00:52;;;;;;;6.90;3.40;;;;;;;-144.13;100.00;64086.75;5031888;28;20033;-58
2021/07/02 09:03:29;;;;;;;6.10;3.50;;;;;;;-144.13;100.00;64086.75;5029026;28;20391;-56
2021/07/02 09:05:56;;;;;;;4.43;3.22;;;;;;;-144.13;100.00;64086.75;5027713;28;21581;-58
2021/07/02 09:08:22;;;;;;;4.10;3.17;;;;;;;-144.13;100.00;64086.75;5027751;28;20036;-55
2021/07/02 09:10:49;;;;;;;7.03;3.85;;;;;;;-144.13;100.00;64086.75;5025822;28;20375;-56
2021/07/02 09:13:16;;;;;;;9.30;3.67;;;;;;;-144.13;100.00;64086.75;5026158;28;20372;-55
2021/07/02 09:15:49;;;;;;;6.13;3.70;;;;;;;-144.13;100.00;64086.75;5029975;28;20021;-58
2021/07/02 09:18:16;;;;;;;5.90;3.80;;;;;;;-144.13;100.00;64086.75;5024329;28;20029;-57
2021/07/02 09:20:44;;;;;;;6.22;3.83;;;;;;;-144.13;100.00;64086.75;5028297;28;20060;-53
2021/07/02 09:23:11;;;;;;;6.82;3.58;;;;;;;-144.13;100.00;64086.75;5027371;28;20591;-57
2021/07/02 09:25:47;;;;;;;4.75;3.25;;;;;;;-144.13;100.00;64086.75;5027999;28;20037;-58
2021/07/02 09:28:15;;;;;;;7.18;3.58;;;;;;;-144.13;100.00;64086.75;5028756;28;21656;-56
2021/07/02 09:30:45;;;;;;;5.95;3.65;;;;;;;-144.13;100.00;64086.75;5027017;28;20064;-54
2021/07/02 09:33:15;;;;;;;4.68;3.35;;;;;;;-144.13;100.00;64086.75;5026672;28;20478;-58
2021/07/02 09:35:51;;;;;;;7.80;3.22;;;;;;;-144.13;100.00;64086.75;5025952;28;20030;-58
2021/07/02 09:38:19;;;;;;;7.80;3.35;;;;;;;-144.13;100.00;64086.75;5031045;28;20535;-56
2021/07/02 09:40:47;;;;;;;7.75;3.08;;;;;;;-144.13;100.00;64086.75;5025300;28;20048;-58
2021/07/02 09:43:18;;;;;;;6.78;3.92;;;;;;;-144.13;100.00;64086.75;5028749;28;20139;-55
2021/07/02 09:46:09;;;;;;;6.93;3.75;;;;;;;-144.13;100.00;64086.75;5027174;28;20032;-53
2021/07/02 09:48:42;;;;;;;6.72;4.05;;;;;;;-144.13;100.00;64086.75;5026344;28;20534;-59
2021/07/02 09:51:09;;;;;;;3.97;2.85;;;;;;;-144.13;100.00;64086.75;5026738;28;20087;-55
2021/07/02 09:53:36;;;;;;;3.38;2.88;;;;;;;-144.13;100.00;64086.75;5029678;28;20247;-56
2021/07/02 09:56:09;;;;;;;5.85;3.35;;;;;;;-144.13;100.00;64086.75;5031350;28;20642;-53
2021/07/02 09:58:38;;;;;;;8.60;3.38;;;;;;;-144.13;100.00;64086.75;5029607;28;20021;-59
2021/07/02 10:01:06;;;;;;;8.30;3.83;;;;;;;-144.13;100.00;64086.75;5028808;28;20025;-56
2021/07/02 10:03:44;;;;;;;3.97;3.00;;;;;;;-144.13;100.00;64086.75;5027158;28;20033;-55
2021/07/02 10:06:19;;;;;;;6.72;3.30;;;;;;;-144.13;100.00;64086.75;5027826;28;20037;-55
2021/07/02 10:08:45;;;;;;;3.92;2.50;;;;;;;-144.13;100.00;64086.75;5036118;28;20558;-55
2021/07/02 10:11:11;;;;;;;5.13;3.30;;;;;;;-144.13;100.00;64086.75;5032191;28;20045;-58
2021/07/02 10:13:39;;;;;;;5.28;3.45;;;;;;;-144.13;100.00;64086.75;5035746;28;20499;-55
2021/07/02 10:16:07;;;;;;;7.18;2.95;;;;;;;-144.13;100.00;64086.75;5031210;28;20029;-57
2021/07/02 10:18:37;;;;;;;4.72;2.83;;;;;;;-144.13;100.00;64086.75;5032761;28;20538;-55
2021/07/02 10:21:05;;;;;;;5.40;3.00;;;;;;;-144.13;100.00;64086.75;5019819;28;20051;-56
2021/07/02 10:23:41;;;;;;;6.20;3.05;;;;;;;-144.13;100.00;64086.75;5032475;28;20592;-57
2021/07/02 10:26:08;;;;;;;7.60;2.63;;;;;;;-144.13;100.00;64086.75;5033737;28;20050;-53
2021/07/02 10:28:37;;;;;;;5.22;2.92;;;;;;;-144.13;100.00;64086.75;5030999;28;20048;-55
2021/07/02 10:31:06;;;;;;;9.45;3.03;;;;;;;-144.13;100.00;64086.75;5036417;28;20033;-58
2021/07/02 10:33:34;;;;;;;4.78;2.80;;;;;;;-144.13;100.00;64086.75;5032958;28;20157;-57
2021/07/02 10:36:04;;;;;;;5.53;2.88;;;;;;;-144.13;100.00;64086.75;5033581;28;20026;-58
2021/07/02 10:38:37;;;;;;;8.00;2.97;;;;;;;-144.13;100.00;64086.75;5032235;28;20051;-57
2021/07/02 10:41:13;;;;;;;3.22;2.92;;;;;;;-144.13;100.00;64086.75;5031377;28;20017;-56
2021/07/02 10:44:14;;;;;;;3.20;2.53;;;;;;;-144.13;100.00;64086.75;5031066;28;20296;-57
2021/07/02 10:46:48;;;;;;;4.95;3.13;;;;;;;-144.13;100.00;64086.75;5028735;28;20617;-56
2021/07/02 10:49:14;;;;;;;3.78;2.60;;;;;;;-144.13;100.00;64086.75;5034899;28;20049;-56
2021/07/02 10:51:41;;;;;;;5.40;3.20;;;;;;;-144.13;100.00;64086.75;5032770;28;20494;-55
2021/07/02 10:54:20;;;;;;;7.72;3.00;;;;;;;-144.13;100.00;64086.75;5030697;28;20033;-55
2021/07/02 10:56:54;;;;;;;4.95;3.20;;;;;;;-144.13;100.00;64086.75;5032966;28;20072;-55
2021/07/02 10:59:20;;;;;;;5.93;3.15;;;;;;;-144.13;100.00;64086.75;5035243;28;20033;-56
2021/07/02 11:02:15;;;;;;;4.53;3.15;;;;;;;-144.13;100.00;64086.75;5030084;28;20499;-57
2021/07/02 11:04:40;;;;;;;5.83;2.80;;;;;;;-144.13;100.00;64086.75;5034449;28;20079;-55
2021/07/02 11:07:11;;;;;;;5.80;2.97;;;;;;;-144.13;100.00;64086.75;5032573;28;20048;-53